sensor_id;sensor_type;location;lat;lon;timestamp;P1;durP1;ratioP1;P2;durP2;ratioP2
63008;SDS011;49099;28.428;-16.488;2022-12-07T00:01:16;3.47;;;1.00;;
63008;SDS011;49099;28.428;-16.488;2022-12-07T00:03:48;6.63;;;1.38;;
63008;SDS011;49099;28.428;-16.488;2022-12-07T00:06:16;4.70;;;0.90;;
63008;SDS011;49099;28.428;-16.488;2022-12-07T00:08:44;2.13;;;0.80;;
63008;SDS011;49099;28.428;-16.488;2022-12-07T00:11:13;6.60;;;1.30;;
63008;SDS011;49099;28.428;-16.488;2022-12-07T00:13:42;4.47;;;0.90;;
63008;SDS011;49099;28.428;-16.488;2022-12-07T00:16:12;4.72;;;1.20;;
63008;SDS011;49099;28.428;-16.488;2022-12-07T00:21:13;3.80;;;1.35;;
63008;SDS011;49099;28.428;-16.488;2022-12-07T00:23:43;4.18;;;1.40;;
63008;SDS011;49099;28.428;-16.488;2022-12-07T00:26:13;6.22;;;1.75;;
63008;SDS011;49099;28.428;-16.488;2022-12-07T00:28:40;4.63;;;1.60;;
63008;SDS011;49099;28.428;-16.488;2022-12-07T00:31:08;4.50;;;1.40;;
63008;SDS011;49099;28.428;-16.488;2022-12-07T00:33:38;5.93;;;1.63;;
63008;SDS011;49099;28.428;-16.488;2022-12-07T00:36:07;5.47;;;1.77;;
63008;SDS011;49099;28.428;-16.488;2022-12-07T00:38:36;9.77;;;2.00;;
63008;SDS011;49099;28.428;-16.488;2022-12-07T00:41:05;4.40;;;1.90;;
63008;SDS011;49099;28.428;-16.488;2022-12-07T00:43:34;7.05;;;2.00;;
63008;SDS011;49099;28.428;-16.488;2022-12-07T00:46:01;4.57;;;1.15;;
63008;SDS011;49099;28.428;-16.488;2022-12-07T00:48:29;3.47;;;1.23;;
63008;SDS011;49099;28.428;-16.488;2022-12-07T00:50:57;8.77;;;1.85;;
63008;SDS011;49099;28.428;-16.488;2022-12-07T00:53:25;5.30;;;1.45;;
63008;SDS011;49099;28.428;-16.488;2022-12-07T00:55:52;5.57;;;1.92;;
63008;SDS011;49099;28.428;-16.488;2022-12-07T00:58:20;5.22;;;2.10;;
63008;SDS011;49099;28.428;-16.488;2022-12-07T01:00:47;5.32;;;1.98;;
63008;SDS011;49099;28.428;-16.488;2022-12-07T01:03:15;4.53;;;1.70;;
63008;SDS011;49099;28.428;-16.488;2022-12-07T01:05:50;6.07;;;1.70;;
63008;SDS011;49099;28.428;-16.488;2022-12-07T01:08:18;6.72;;;1.90;;
63008;SDS011;49099;28.428;-16.488;2022-12-07T01:10:46;5.22;;;1.48;;
63008;SDS011;49099;28.428;-16.488;2022-12-07T01:13:13;4.88;;;1.70;;
63008;SDS011;49099;28.428;-16.488;2022-12-07T01:15:41;5.40;;;1.35;;
63008;SDS011;49099;28.428;-16.488;2022-12-07T01:18:09;5.30;;;1.85;;
63008;SDS011;49099;28.428;-16.488;2022-12-07T01:20:36;5.10;;;1.42;;
63008;SDS011;49099;28.428;-16.488;2022-12-07T01:23:04;5.63;;;1.10;;
63008;SDS011;49099;28.428;-16.488;2022-12-07T01:25:31;5.90;;;1.40;;
63008;SDS011;49099;28.428;-16.488;2022-12-07T01:27:58;5.60;;;1.30;;
63008;SDS011;49099;28.428;-16.488;2022-12-07T01:30:25;3.78;;;1.60;;
63008;SDS011;49099;28.428;-16.488;2022-12-07T01:32:53;6.13;;;1.80;;
63008;SDS011;49099;28.428;-16.488;2022-12-07T01:35:20;6.13;;;1.65;;
63008;SDS011;49099;28.428;-16.488;2022-12-07T01:37:47;4.60;;;2.08;;
63008;SDS011;49099;28.428;-16.488;2022-12-07T01:40:14;4.82;;;1.70;;
63008;SDS011;49099;28.428;-16.488;2022-12-07T01:42:41;6.97;;;1.30;;
63008;SDS011;49099;28.428;-16.488;2022-12-07T01:45:30;6.25;;;2.17;;
63008;SDS011;49099;28.428;-16.488;2022-12-07T01:48:05;7.10;;;1.75;;
63008;SDS011;49099;28.428;-16.488;2022-12-07T01:50:34;4.10;;;1.52;;
63008;SDS011;49099;28.428;-16.488;2022-12-07T01:53:02;4.47;;;1.38;;
63008;SDS011;49099;28.428;-16.488;2022-12-07T01:55:34;5.10;;;1.20;;
63008;SDS011;49099;28.428;-16.488;2022-12-07T01:58:03;4.28;;;1.30;;
63008;SDS011;49099;28.428;-16.488;2022-12-07T02:00:31;5.93;;;1.30;;
63008;SDS011;49099;28.428;-16.488;2022-12-07T02:03:09;3.95;;;1.23;;
63008;SDS011;49099;28.428;-16.488;2022-12-07T02:05:42;3.45;;;1.33;;
63008;SDS011;49099;28.428;-16.488;2022-12-07T02:08:10;6.38;;;1.35;;
63008;SDS011;49099;28.428;-16.488;2022-12-07T02:10:39;3.38;;;1.08;;
63008;SDS011;49099;28.428;-16.488;2022-12-07T02:13:11;3.78;;;1.35;;
63008;SDS011;49099;28.428;-16.488;2022-12-07T02:15:47;4.25;;;1.30;;
63008;SDS011;49099;28.428;-16.488;2022-12-07T02:29:22;1.95;;;0.65;;
63008;SDS011;49099;28.428;-16.488;2022-12-07T02:36:55;6.03;;;0.90;;
63008;SDS011;49099;28.428;-16.488;2022-12-07T02:39:34;3.78;;;0.80;;
63008;SDS011;49099;28.428;-16.488;2022-12-07T02:42:11;4.97;;;1.00;;
63008;SDS011;49099;28.428;-16.488;2022-12-07T02:44:44;2.80;;;0.90;;
63008;SDS011;49099;28.428;-16.488;2022-12-07T02:47:13;4.60;;;0.90;;
63008;SDS011;49099;28.428;-16.488;2022-12-07T02:49:43;3.85;;;0.90;;
63008;SDS011;49099;28.428;-16.488;2022-12-07T02:52:11;3.03;;;0.85;;
63008;SDS011;49099;28.428;-16.488;2022-12-07T02:54:38;2.58;;;0.80;;
63008;SDS011;49099;28.428;-16.488;2022-12-07T02:59:59;2.75;;;0.80;;
63008;SDS011;49099;28.428;-16.488;2022-12-07T03:02:59;3.10;;;0.73;;
63008;SDS011;49099;28.428;-16.488;2022-12-07T03:08:21;1.52;;;0.70;;
63008;SDS011;49099;28.428;-16.488;2022-12-07T03:13:43;1.73;;;0.80;;
63008;SDS011;49099;28.428;-16.488;2022-12-07T03:16:23;3.20;;;0.70;;
63008;SDS011;49099;28.428;-16.488;2022-12-07T03:18:58;2.83;;;0.70;;
63008;SDS011;49099;28.428;-16.488;2022-12-07T03:21:34;1.75;;;0.63;;
63008;SDS011;49099;28.428;-16.488;2022-12-07T03:24:09;3.75;;;0.90;;
63008;SDS011;49099;28.428;-16.488;2022-12-07T03:26:52;3.55;;;0.80;;
63008;SDS011;49099;28.428;-16.488;2022-12-07T03:29:43;1.67;;;0.60;;
63008;SDS011;49099;28.428;-16.488;2022-12-07T03:32:49;1.23;;;0.50;;
63008;SDS011;49099;28.428;-16.488;2022-12-07T03:35:29;2.20;;;0.60;;
63008;SDS011;49099;28.428;-16.488;2022-12-07T03:38:04;2.40;;;0.60;;
63008;SDS011;49099;28.428;-16.488;2022-12-07T03:43:25;2.25;;;0.80;;
63008;SDS011;49099;28.428;-16.488;2022-12-07T03:48:59;2.83;;;0.60;;
63008;SDS011;49099;28.428;-16.488;2022-12-07T03:57:06;1.65;;;0.65;;
63008;SDS011;49099;28.428;-16.488;2022-12-07T03:59:34;3.33;;;0.63;;
63008;SDS011;49099;28.428;-16.488;2022-12-07T04:02:03;2.55;;;0.60;;
63008;SDS011;49099;28.428;-16.488;2022-12-07T04:04:32;3.90;;;0.70;;
63008;SDS011;49099;28.428;-16.488;2022-12-07T04:07:00;3.67;;;0.80;;
63008;SDS011;49099;28.428;-16.488;2022-12-07T04:09:27;2.08;;;0.70;;
63008;SDS011;49099;28.428;-16.488;2022-12-07T04:11:54;2.45;;;0.70;;
63008;SDS011;49099;28.428;-16.488;2022-12-07T04:14:22;1.70;;;0.70;;
63008;SDS011;49099;28.428;-16.488;2022-12-07T04:16:53;5.07;;;0.70;;
63008;SDS011;49099;28.428;-16.488;2022-12-07T04:19:26;2.95;;;0.70;;
63008;SDS011;49099;28.428;-16.488;2022-12-07T04:21:58;2.45;;;0.90;;
63008;SDS011;49099;28.428;-16.488;2022-12-07T04:24:27;3.00;;;0.50;;
63008;SDS011;49099;28.428;-16.488;2022-12-07T04:26:54;2.40;;;0.60;;
63008;SDS011;49099;28.428;-16.488;2022-12-07T04:29:21;2.33;;;0.70;;
63008;SDS011;49099;28.428;-16.488;2022-12-07T04:31:49;2.45;;;0.60;;
63008;SDS011;49099;28.428;-16.488;2022-12-07T04:34:17;2.60;;;0.70;;
63008;SDS011;49099;28.428;-16.488;2022-12-07T04:36:45;3.20;;;0.65;;
63008;SDS011;49099;28.428;-16.488;2022-12-07T04:39:18;1.40;;;0.52;;
63008;SDS011;49099;28.428;-16.488;2022-12-07T04:41:48;3.10;;;0.70;;
63008;SDS011;49099;28.428;-16.488;2022-12-07T04:44:16;4.25;;;0.82;;
63008;SDS011;49099;28.428;-16.488;2022-12-07T04:46:44;2.10;;;0.60;;
63008;SDS011;49099;28.428;-16.488;2022-12-07T04:49:13;2.25;;;0.60;;
63008;SDS011;49099;28.428;-16.488;2022-12-07T04:51:41;2.60;;;0.65;;
63008;SDS011;49099;28.428;-16.488;2022-12-07T04:54:09;1.70;;;0.63;;
63008;SDS011;49099;28.428;-16.488;2022-12-07T04:56:36;2.75;;;0.70;;
63008;SDS011;49099;28.428;-16.488;2022-12-07T04:59:04;2.30;;;0.50;;
63008;SDS011;49099;28.428;-16.488;2022-12-07T05:01:31;2.22;;;0.50;;
63008;SDS011;49099;28.428;-16.488;2022-12-07T05:03:59;3.45;;;0.80;;
63008;SDS011;49099;28.428;-16.488;2022-12-07T05:06:26;0.82;;;0.43;;
63008;SDS011;49099;28.428;-16.488;2022-12-07T05:08:54;2.92;;;0.47;;
63008;SDS011;49099;28.428;-16.488;2022-12-07T05:11:21;1.23;;;0.45;;
63008;SDS011;49099;28.428;-16.488;2022-12-07T05:14:17;2.35;;;0.50;;
63008;SDS011;49099;28.428;-16.488;2022-12-07T05:16:47;2.78;;;0.57;;
63008;SDS011;49099;28.428;-16.488;2022-12-07T05:19:16;1.65;;;0.50;;
63008;SDS011;49099;28.428;-16.488;2022-12-07T05:21:45;2.03;;;0.43;;
63008;SDS011;49099;28.428;-16.488;2022-12-07T05:24:13;0.82;;;0.40;;
63008;SDS011;49099;28.428;-16.488;2022-12-07T05:26:42;3.15;;;0.47;;
63008;SDS011;49099;28.428;-16.488;2022-12-07T05:29:10;2.28;;;0.50;;
63008;SDS011;49099;28.428;-16.488;2022-12-07T05:31:39;1.90;;;0.60;;
63008;SDS011;49099;28.428;-16.488;2022-12-07T05:34:06;0.95;;;0.45;;
63008;SDS011;49099;28.428;-16.488;2022-12-07T05:36:33;1.02;;;0.40;;
63008;SDS011;49099;28.428;-16.488;2022-12-07T05:39:01;0.70;;;0.40;;
63008;SDS011;49099;28.428;-16.488;2022-12-07T05:41:28;1.85;;;0.50;;
63008;SDS011;49099;28.428;-16.488;2022-12-07T05:44:14;0.75;;;0.40;;
63008;SDS011;49099;28.428;-16.488;2022-12-07T05:46:41;0.93;;;0.50;;
63008;SDS011;49099;28.428;-16.488;2022-12-07T05:49:08;2.45;;;0.50;;
63008;SDS011;49099;28.428;-16.488;2022-12-07T05:51:35;0.77;;;0.50;;
63008;SDS011;49099;28.428;-16.488;2022-12-07T05:54:03;1.92;;;0.50;;
63008;SDS011;49099;28.428;-16.488;2022-12-07T05:56:30;1.20;;;0.50;;
63008;SDS011;49099;28.428;-16.488;2022-12-07T05:58:57;3.78;;;0.63;;
63008;SDS011;49099;28.428;-16.488;2022-12-07T06:01:42;2.85;;;0.57;;
63008;SDS011;49099;28.428;-16.488;2022-12-07T06:04:09;2.05;;;0.50;;
63008;SDS011;49099;28.428;-16.488;2022-12-07T06:06:36;1.73;;;0.60;;
63008;SDS011;49099;28.428;-16.488;2022-12-07T06:09:04;2.38;;;0.50;;
63008;SDS011;49099;28.428;-16.488;2022-12-07T06:11:31;1.42;;;0.50;;
63008;SDS011;49099;28.428;-16.488;2022-12-07T06:14:17;1.77;;;0.60;;
63008;SDS011;49099;28.428;-16.488;2022-12-07T06:16:44;2.03;;;0.50;;
63008;SDS011;49099;28.428;-16.488;2022-12-07T06:19:11;1.95;;;0.57;;
63008;SDS011;49099;28.428;-16.488;2022-12-07T06:21:38;3.03;;;0.50;;
63008;SDS011;49099;28.428;-16.488;2022-12-07T06:24:05;1.30;;;0.50;;
63008;SDS011;49099;28.428;-16.488;2022-12-07T06:26:33;1.75;;;0.60;;
63008;SDS011;49099;28.428;-16.488;2022-12-07T06:29:00;2.70;;;0.60;;
63008;SDS011;49099;28.428;-16.488;2022-12-07T06:31:27;1.05;;;0.50;;
63008;SDS011;49099;28.428;-16.488;2022-12-07T06:34:01;2.55;;;0.47;;
63008;SDS011;49099;28.428;-16.488;2022-12-07T06:36:30;2.17;;;0.60;;
63008;SDS011;49099;28.428;-16.488;2022-12-07T06:38:57;2.03;;;0.50;;
63008;SDS011;49099;28.428;-16.488;2022-12-07T06:41:25;1.35;;;0.70;;
63008;SDS011;49099;28.428;-16.488;2022-12-07T06:43:52;2.40;;;0.70;;
63008;SDS011;49099;28.428;-16.488;2022-12-07T06:46:22;1.15;;;0.57;;
63008;SDS011;49099;28.428;-16.488;2022-12-07T06:48:49;3.90;;;0.75;;
63008;SDS011;49099;28.428;-16.488;2022-12-07T06:51:17;2.25;;;0.60;;
63008;SDS011;49099;28.428;-16.488;2022-12-07T06:53:44;3.25;;;0.40;;
63008;SDS011;49099;28.428;-16.488;2022-12-07T06:56:11;1.58;;;0.60;;
63008;SDS011;49099;28.428;-16.488;2022-12-07T06:58:39;1.63;;;0.50;;
63008;SDS011;49099;28.428;-16.488;2022-12-07T07:01:10;1.90;;;0.70;;
63008;SDS011;49099;28.428;-16.488;2022-12-07T07:03:38;1.42;;;0.50;;
63008;SDS011;49099;28.428;-16.488;2022-12-07T07:06:05;4.20;;;0.57;;
63008;SDS011;49099;28.428;-16.488;2022-12-07T07:08:34;1.88;;;0.57;;
63008;SDS011;49099;28.428;-16.488;2022-12-07T07:11:02;6.38;;;1.00;;
63008;SDS011;49099;28.428;-16.488;2022-12-07T07:13:29;4.25;;;1.00;;
63008;SDS011;49099;28.428;-16.488;2022-12-07T07:15:57;3.05;;;0.98;;
63008;SDS011;49099;28.428;-16.488;2022-12-07T07:18:24;2.10;;;0.90;;
63008;SDS011;49099;28.428;-16.488;2022-12-07T07:20:51;3.55;;;1.10;;
63008;SDS011;49099;28.428;-16.488;2022-12-07T07:23:19;5.68;;;1.00;;
63008;SDS011;49099;28.428;-16.488;2022-12-07T07:25:47;1.95;;;0.60;;
63008;SDS011;49099;28.428;-16.488;2022-12-07T07:28:15;3.92;;;0.95;;
63008;SDS011;49099;28.428;-16.488;2022-12-07T07:30:42;3.60;;;0.82;;
63008;SDS011;49099;28.428;-16.488;2022-12-07T07:33:10;3.28;;;0.73;;
63008;SDS011;49099;28.428;-16.488;2022-12-07T07:35:37;2.95;;;0.73;;
63008;SDS011;49099;28.428;-16.488;2022-12-07T07:38:06;3.05;;;0.60;;
63008;SDS011;49099;28.428;-16.488;2022-12-07T07:40:34;2.17;;;0.65;;
63008;SDS011;49099;28.428;-16.488;2022-12-07T07:43:02;2.15;;;0.60;;
63008;SDS011;49099;28.428;-16.488;2022-12-07T07:45:29;2.58;;;0.65;;
63008;SDS011;49099;28.428;-16.488;2022-12-07T07:47:56;3.08;;;0.57;;
63008;SDS011;49099;28.428;-16.488;2022-12-07T07:50:23;1.45;;;0.50;;
63008;SDS011;49099;28.428;-16.488;2022-12-07T07:52:50;1.27;;;0.68;;
63008;SDS011;49099;28.428;-16.488;2022-12-07T07:55:17;3.03;;;0.82;;
63008;SDS011;49099;28.428;-16.488;2022-12-07T07:57:45;2.95;;;0.82;;
63008;SDS011;49099;28.428;-16.488;2022-12-07T08:00:19;2.45;;;0.70;;
63008;SDS011;49099;28.428;-16.488;2022-12-07T08:02:47;5.38;;;1.33;;
63008;SDS011;49099;28.428;-16.488;2022-12-07T08:05:14;1.73;;;0.80;;
63008;SDS011;49099;28.428;-16.488;2022-12-07T08:07:42;2.30;;;0.70;;
63008;SDS011;49099;28.428;-16.488;2022-12-07T08:10:10;1.63;;;0.60;;
63008;SDS011;49099;28.428;-16.488;2022-12-07T08:12:40;1.17;;;0.65;;
63008;SDS011;49099;28.428;-16.488;2022-12-07T08:15:27;3.30;;;0.80;;
63008;SDS011;49099;28.428;-16.488;2022-12-07T08:17:56;2.35;;;0.70;;
63008;SDS011;49099;28.428;-16.488;2022-12-07T08:20:23;1.98;;;0.80;;
63008;SDS011;49099;28.428;-16.488;2022-12-07T08:22:50;2.53;;;0.70;;
63008;SDS011;49099;28.428;-16.488;2022-12-07T08:25:17;2.63;;;0.68;;
63008;SDS011;49099;28.428;-16.488;2022-12-07T08:27:45;4.00;;;0.70;;
63008;SDS011;49099;28.428;-16.488;2022-12-07T08:30:13;1.30;;;0.60;;
63008;SDS011;49099;28.428;-16.488;2022-12-07T08:32:40;1.77;;;0.70;;
63008;SDS011;49099;28.428;-16.488;2022-12-07T08:35:07;6.53;;;0.90;;
63008;SDS011;49099;28.428;-16.488;2022-12-07T08:37:35;7.05;;;0.90;;
63008;SDS011;49099;28.428;-16.488;2022-12-07T08:40:04;2.63;;;0.77;;
63008;SDS011;49099;28.428;-16.488;2022-12-07T08:42:32;1.58;;;0.80;;
63008;SDS011;49099;28.428;-16.488;2022-12-07T08:47:35;2.00;;;0.90;;
63008;SDS011;49099;28.428;-16.488;2022-12-07T08:50:05;3.25;;;0.90;;
63008;SDS011;49099;28.428;-16.488;2022-12-07T08:52:34;2.08;;;1.00;;
63008;SDS011;49099;28.428;-16.488;2022-12-07T08:55:03;3.03;;;1.10;;
63008;SDS011;49099;28.428;-16.488;2022-12-07T08:57:31;3.65;;;0.82;;
63008;SDS011;49099;28.428;-16.488;2022-12-07T09:00:00;2.80;;;0.63;;
63008;SDS011;49099;28.428;-16.488;2022-12-07T09:02:30;3.03;;;0.70;;
63008;SDS011;49099;28.428;-16.488;2022-12-07T09:04:58;0.75;;;0.60;;
63008;SDS011;49099;28.428;-16.488;2022-12-07T09:07:25;3.80;;;0.80;;
63008;SDS011;49099;28.428;-16.488;2022-12-07T09:09:53;0.90;;;0.60;;
63008;SDS011;49099;28.428;-16.488;2022-12-07T09:12:20;0.60;;;0.57;;
63008;SDS011;49099;28.428;-16.488;2022-12-07T09:14:47;0.80;;;0.68;;
63008;SDS011;49099;28.428;-16.488;2022-12-07T09:17:14;1.88;;;0.80;;
63008;SDS011;49099;28.428;-16.488;2022-12-07T09:19:41;2.95;;;0.80;;
63008;SDS011;49099;28.428;-16.488;2022-12-07T09:22:09;1.80;;;0.70;;
63008;SDS011;49099;28.428;-16.488;2022-12-07T09:24:36;2.80;;;0.70;;
63008;SDS011;49099;28.428;-16.488;2022-12-07T09:27:03;2.75;;;0.80;;
63008;SDS011;49099;28.428;-16.488;2022-12-07T09:29:30;2.38;;;0.70;;
63008;SDS011;49099;28.428;-16.488;2022-12-07T09:31:57;5.18;;;0.98;;
63008;SDS011;49099;28.428;-16.488;2022-12-07T09:34:25;4.72;;;0.80;;
63008;SDS011;49099;28.428;-16.488;2022-12-07T09:36:53;3.88;;;0.90;;
63008;SDS011;49099;28.428;-16.488;2022-12-07T09:39:20;2.97;;;0.70;;
63008;SDS011;49099;28.428;-16.488;2022-12-07T09:41:47;3.58;;;1.17;;
63008;SDS011;49099;28.428;-16.488;2022-12-07T09:44:19;3.63;;;0.90;;
63008;SDS011;49099;28.428;-16.488;2022-12-07T09:46:50;5.38;;;1.00;;
63008;SDS011;49099;28.428;-16.488;2022-12-07T09:49:20;3.83;;;0.90;;
63008;SDS011;49099;28.428;-16.488;2022-12-07T09:52:33;1.73;;;0.80;;
63008;SDS011;49099;28.428;-16.488;2022-12-07T09:54:52;3.08;;;0.80;;
63008;SDS011;49099;28.428;-16.488;2022-12-07T09:57:29;3.30;;;1.20;;
63008;SDS011;49099;28.428;-16.488;2022-12-07T09:59:59;2.85;;;1.20;;
63008;SDS011;49099;28.428;-16.488;2022-12-07T10:05:15;4.20;;;0.80;;
63008;SDS011;49099;28.428;-16.488;2022-12-07T10:07:50;4.72;;;0.90;;
63008;SDS011;49099;28.428;-16.488;2022-12-07T10:10:19;1.60;;;0.90;;
63008;SDS011;49099;28.428;-16.488;2022-12-07T10:15:22;4.55;;;1.13;;
63008;SDS011;49099;28.428;-16.488;2022-12-07T10:17:51;3.50;;;0.90;;
63008;SDS011;49099;28.428;-16.488;2022-12-07T10:20:20;3.90;;;0.82;;
63008;SDS011;49099;28.428;-16.488;2022-12-07T10:23:03;4.25;;;0.90;;
63008;SDS011;49099;28.428;-16.488;2022-12-07T10:25:33;1.70;;;0.77;;
63008;SDS011;49099;28.428;-16.488;2022-12-07T10:33:32;4.03;;;1.20;;
63008;SDS011;49099;28.428;-16.488;2022-12-07T10:36:18;2.58;;;1.10;;
63008;SDS011;49099;28.428;-16.488;2022-12-07T10:38:51;2.90;;;0.95;;
63008;SDS011;49099;28.428;-16.488;2022-12-07T10:41:25;4.53;;;1.30;;
63008;SDS011;49099;28.428;-16.488;2022-12-07T10:43:53;13.32;;;1.60;;
63008;SDS011;49099;28.428;-16.488;2022-12-07T10:46:26;7.95;;;1.77;;
63008;SDS011;49099;28.428;-16.488;2022-12-07T10:57:59;5.95;;;1.73;;
63008;SDS011;49099;28.428;-16.488;2022-12-07T11:14:14;5.38;;;1.48;;
63008;SDS011;49099;28.428;-16.488;2022-12-07T11:16:49;8.48;;;3.45;;
63008;SDS011;49099;28.428;-16.488;2022-12-07T11:22:20;29.15;;;12.43;;
63008;SDS011;49099;28.428;-16.488;2022-12-07T11:27:47;9.05;;;4.53;;
63008;SDS011;49099;28.428;-16.488;2022-12-07T11:30:28;18.07;;;2.30;;
63008;SDS011;49099;28.428;-16.488;2022-12-07T11:38:17;4.50;;;1.58;;
63008;SDS011;49099;28.428;-16.488;2022-12-07T11:40:56;4.53;;;1.67;;
63008;SDS011;49099;28.428;-16.488;2022-12-07T11:43:56;6.50;;;2.17;;
63008;SDS011;49099;28.428;-16.488;2022-12-07T11:46:51;2.60;;;1.30;;
63008;SDS011;49099;28.428;-16.488;2022-12-07T11:55:14;7.60;;;2.03;;
63008;SDS011;49099;28.428;-16.488;2022-12-07T11:57:49;6.93;;;1.80;;
63008;SDS011;49099;28.428;-16.488;2022-12-07T12:00:24;9.02;;;2.38;;
63008;SDS011;49099;28.428;-16.488;2022-12-07T12:02:58;4.78;;;2.00;;
63008;SDS011;49099;28.428;-16.488;2022-12-07T12:05:38;7.00;;;1.90;;
63008;SDS011;49099;28.428;-16.488;2022-12-07T12:08:16;10.65;;;1.80;;
63008;SDS011;49099;28.428;-16.488;2022-12-07T12:17:01;7.80;;;1.92;;
63008;SDS011;49099;28.428;-16.488;2022-12-07T12:25:27;6.45;;;2.17;;
63008;SDS011;49099;28.428;-16.488;2022-12-07T12:28:01;7.50;;;2.50;;
63008;SDS011;49099;28.428;-16.488;2022-12-07T12:30:39;11.45;;;2.63;;
63008;SDS011;49099;28.428;-16.488;2022-12-07T12:33:28;12.07;;;3.00;;
63008;SDS011;49099;28.428;-16.488;2022-12-07T12:46:46;7.03;;;2.50;;
63008;SDS011;49099;28.428;-16.488;2022-12-07T12:54:18;8.27;;;2.80;;
63008;SDS011;49099;28.428;-16.488;2022-12-07T12:59:42;4.22;;;1.77;;
63008;SDS011;49099;28.428;-16.488;2022-12-07T13:02:28;3.60;;;1.40;;
63008;SDS011;49099;28.428;-16.488;2022-12-07T13:12:59;11.93;;;2.72;;
63008;SDS011;49099;28.428;-16.488;2022-12-07T13:15:43;12.45;;;2.67;;
63008;SDS011;49099;28.428;-16.488;2022-12-07T13:20:59;12.35;;;2.47;;
63008;SDS011;49099;28.428;-16.488;2022-12-07T13:31:53;11.30;;;2.30;;
63008;SDS011;49099;28.428;-16.488;2022-12-07T13:34:30;16.60;;;2.97;;
63008;SDS011;49099;28.428;-16.488;2022-12-07T13:40:17;10.10;;;2.55;;
63008;SDS011;49099;28.428;-16.488;2022-12-07T13:42:46;8.30;;;2.67;;
63008;SDS011;49099;28.428;-16.488;2022-12-07T13:45:26;4.82;;;1.80;;
63008;SDS011;49099;28.428;-16.488;2022-12-07T13:50:54;4.18;;;1.70;;
63008;SDS011;49099;28.428;-16.488;2022-12-07T13:53:23;4.03;;;1.58;;
63008;SDS011;49099;28.428;-16.488;2022-12-07T13:55:51;21.73;;;3.63;;
63008;SDS011;49099;28.428;-16.488;2022-12-07T13:58:20;25.38;;;4.10;;
63008;SDS011;49099;28.428;-16.488;2022-12-07T14:00:48;22.40;;;4.22;;
63008;SDS011;49099;28.428;-16.488;2022-12-07T14:05:43;20.85;;;4.60;;
63008;SDS011;49099;28.428;-16.488;2022-12-07T14:10:40;20.92;;;4.18;;
63008;SDS011;49099;28.428;-16.488;2022-12-07T14:16:54;7.45;;;2.08;;
63008;SDS011;49099;28.428;-16.488;2022-12-07T14:19:05;3.65;;;1.58;;
63008;SDS011;49099;28.428;-16.488;2022-12-07T14:22:08;3.10;;;1.40;;
63008;SDS011;49099;28.428;-16.488;2022-12-07T14:24:45;4.38;;;1.60;;
63008;SDS011;49099;28.428;-16.488;2022-12-07T14:27:23;4.15;;;2.13;;
63008;SDS011;49099;28.428;-16.488;2022-12-07T14:29:56;3.47;;;1.58;;
63008;SDS011;49099;28.428;-16.488;2022-12-07T14:32:25;4.72;;;1.20;;
63008;SDS011;49099;28.428;-16.488;2022-12-07T14:34:58;2.28;;;1.10;;
63008;SDS011;49099;28.428;-16.488;2022-12-07T14:37:34;2.65;;;1.23;;
63008;SDS011;49099;28.428;-16.488;2022-12-07T14:40:01;1.48;;;1.10;;
63008;SDS011;49099;28.428;-16.488;2022-12-07T14:42:29;1.50;;;1.00;;
63008;SDS011;49099;28.428;-16.488;2022-12-07T14:44:57;5.72;;;2.22;;
63008;SDS011;49099;28.428;-16.488;2022-12-07T14:47:26;25.17;;;4.40;;
63008;SDS011;49099;28.428;-16.488;2022-12-07T14:50:14;16.98;;;3.45;;
63008;SDS011;49099;28.428;-16.488;2022-12-07T14:52:45;5.93;;;1.98;;
63008;SDS011;49099;28.428;-16.488;2022-12-07T14:55:36;4.30;;;1.50;;
63008;SDS011;49099;28.428;-16.488;2022-12-07T14:58:03;5.53;;;1.83;;
63008;SDS011;49099;28.428;-16.488;2022-12-07T15:00:30;14.05;;;2.35;;
63008;SDS011;49099;28.428;-16.488;2022-12-07T15:02:57;11.10;;;2.35;;
63008;SDS011;49099;28.428;-16.488;2022-12-07T15:05:24;6.38;;;1.88;;
63008;SDS011;49099;28.428;-16.488;2022-12-07T15:07:52;6.32;;;2.05;;
63008;SDS011;49099;28.428;-16.488;2022-12-07T15:10:22;13.30;;;2.65;;
63008;SDS011;49099;28.428;-16.488;2022-12-07T15:12:56;13.30;;;3.70;;
63008;SDS011;49099;28.428;-16.488;2022-12-07T15:15:47;10.30;;;2.83;;
63008;SDS011;49099;28.428;-16.488;2022-12-07T15:18:16;12.07;;;2.42;;
63008;SDS011;49099;28.428;-16.488;2022-12-07T15:20:43;8.45;;;1.70;;
63008;SDS011;49099;28.428;-16.488;2022-12-07T15:23:11;26.17;;;4.03;;
63008;SDS011;49099;28.428;-16.488;2022-12-07T15:25:42;26.38;;;4.38;;
63008;SDS011;49099;28.428;-16.488;2022-12-07T15:28:13;14.73;;;3.28;;
63008;SDS011;49099;28.428;-16.488;2022-12-07T15:30:41;12.73;;;2.67;;
63008;SDS011;49099;28.428;-16.488;2022-12-07T15:33:10;13.40;;;2.67;;
63008;SDS011;49099;28.428;-16.488;2022-12-07T15:35:39;10.20;;;2.53;;
63008;SDS011;49099;28.428;-16.488;2022-12-07T15:38:07;6.85;;;2.00;;
63008;SDS011;49099;28.428;-16.488;2022-12-07T15:40:35;6.35;;;1.98;;
63008;SDS011;49099;28.428;-16.488;2022-12-07T15:43:02;12.63;;;2.63;;
63008;SDS011;49099;28.428;-16.488;2022-12-07T15:45:29;10.63;;;2.47;;
63008;SDS011;49099;28.428;-16.488;2022-12-07T15:47:57;9.88;;;2.00;;
63008;SDS011;49099;28.428;-16.488;2022-12-07T15:50:44;10.73;;;2.03;;
63008;SDS011;49099;28.428;-16.488;2022-12-07T15:53:11;5.05;;;1.77;;
63008;SDS011;49099;28.428;-16.488;2022-12-07T15:55:39;6.68;;;1.98;;
63008;SDS011;49099;28.428;-16.488;2022-12-07T15:58:06;8.85;;;1.80;;
63008;SDS011;49099;28.428;-16.488;2022-12-07T16:00:34;8.05;;;1.95;;
63008;SDS011;49099;28.428;-16.488;2022-12-07T16:03:01;6.28;;;2.13;;
63008;SDS011;49099;28.428;-16.488;2022-12-07T16:05:28;6.95;;;1.98;;
63008;SDS011;49099;28.428;-16.488;2022-12-07T16:07:55;7.82;;;2.00;;
63008;SDS011;49099;28.428;-16.488;2022-12-07T16:10:22;6.50;;;1.80;;
63008;SDS011;49099;28.428;-16.488;2022-12-07T16:12:49;6.13;;;1.67;;
63008;SDS011;49099;28.428;-16.488;2022-12-07T16:15:16;7.18;;;1.80;;
63008;SDS011;49099;28.428;-16.488;2022-12-07T16:17:50;8.55;;;2.20;;
63008;SDS011;49099;28.428;-16.488;2022-12-07T16:20:17;7.25;;;2.17;;
63008;SDS011;49099;28.428;-16.488;2022-12-07T16:22:44;9.15;;;2.40;;
63008;SDS011;49099;28.428;-16.488;2022-12-07T16:25:11;6.68;;;2.17;;
63008;SDS011;49099;28.428;-16.488;2022-12-07T16:27:43;6.55;;;2.00;;
63008;SDS011;49099;28.428;-16.488;2022-12-07T16:30:11;7.40;;;2.08;;
63008;SDS011;49099;28.428;-16.488;2022-12-07T16:32:40;6.72;;;2.22;;
63008;SDS011;49099;28.428;-16.488;2022-12-07T16:35:08;5.95;;;1.95;;
63008;SDS011;49099;28.428;-16.488;2022-12-07T16:37:35;4.50;;;1.60;;
63008;SDS011;49099;28.428;-16.488;2022-12-07T16:40:02;4.45;;;1.50;;
63008;SDS011;49099;28.428;-16.488;2022-12-07T16:42:31;19.08;;;6.22;;
63008;SDS011;49099;28.428;-16.488;2022-12-07T16:44:59;12.90;;;4.80;;
63008;SDS011;49099;28.428;-16.488;2022-12-07T16:47:26;3.65;;;2.00;;
63008;SDS011;49099;28.428;-16.488;2022-12-07T16:49:54;5.70;;;2.53;;
63008;SDS011;49099;28.428;-16.488;2022-12-07T16:52:21;3.33;;;1.30;;
63008;SDS011;49099;28.428;-16.488;2022-12-07T16:54:48;5.82;;;1.60;;
63008;SDS011;49099;28.428;-16.488;2022-12-07T16:57:16;5.47;;;1.70;;
63008;SDS011;49099;28.428;-16.488;2022-12-07T16:59:48;3.65;;;1.27;;
63008;SDS011;49099;28.428;-16.488;2022-12-07T17:02:16;2.78;;;1.40;;
63008;SDS011;49099;28.428;-16.488;2022-12-07T17:04:44;3.47;;;1.50;;
63008;SDS011;49099;28.428;-16.488;2022-12-07T17:07:11;9.88;;;1.77;;
63008;SDS011;49099;28.428;-16.488;2022-12-07T17:09:38;4.70;;;2.00;;
63008;SDS011;49099;28.428;-16.488;2022-12-07T17:12:06;7.43;;;1.60;;
63008;SDS011;49099;28.428;-16.488;2022-12-07T17:14:33;6.28;;;1.60;;
63008;SDS011;49099;28.428;-16.488;2022-12-07T17:17:19;6.05;;;1.63;;